Terminal Aerodrome Forecast
Issued by NWS Los Angeles, CA

Home | Current Version | Previous Version | Text Only | Print | Product List | Glossary On
Versions: 1 2 3 4 5 6 7 8 9 10 11 12 13 14 15
000
FTUS46 KLOX 301100 RRA
TAFSMX
TAF
KSMX 301142Z 3012/3112 VRB03KT P6SM BKN200
     FM301600 26008KT P6SM SCT150 BKN200
     FM310200 26008KT P6SM BKN025 OVC100
     FM310500 14006KT P6SM OVC025
     FM310900 VRB04KT P6SM BKN015 OVC030=

USA.gov is the U.S. government's official web portal to all federal, state and local government web resources and services.